sensor_id;sensor_type;location;lat;lon;timestamp;P1;durP1;ratioP1;P2;durP2;ratioP2
51758;SDS011;66684;47.568;18.734;2023-02-22T00:01:15;5.47;;;1.70;;
51758;SDS011;66684;47.568;18.734;2023-02-22T00:04:03;4.47;;;1.37;;
51758;SDS011;66684;47.568;18.734;2023-02-22T00:06:30;3.87;;;1.50;;
51758;SDS011;66684;47.568;18.734;2023-02-22T00:08:57;2.80;;;1.33;;
51758;SDS011;66684;47.568;18.734;2023-02-22T00:11:24;2.50;;;1.67;;
51758;SDS011;66684;47.568;18.734;2023-02-22T00:13:51;2.90;;;1.52;;
51758;SDS011;66684;47.568;18.734;2023-02-22T00:16:18;3.92;;;1.70;;
51758;SDS011;66684;47.568;18.734;2023-02-22T00:18:45;2.37;;;1.50;;
51758;SDS011;66684;47.568;18.734;2023-02-22T00:21:12;2.42;;;1.40;;
51758;SDS011;66684;47.568;18.734;2023-02-22T00:23:41;2.45;;;1.50;;
51758;SDS011;66684;47.568;18.734;2023-02-22T00:26:11;5.22;;;2.15;;
51758;SDS011;66684;47.568;18.734;2023-02-22T00:28:48;3.20;;;1.73;;
51758;SDS011;66684;47.568;18.734;2023-02-22T00:31:16;4.10;;;1.95;;
51758;SDS011;66684;47.568;18.734;2023-02-22T00:33:42;3.67;;;2.00;;
51758;SDS011;66684;47.568;18.734;2023-02-22T00:36:09;3.62;;;2.20;;
51758;SDS011;66684;47.568;18.734;2023-02-22T00:38:36;5.28;;;2.20;;
51758;SDS011;66684;47.568;18.734;2023-02-22T00:41:02;4.03;;;2.10;;
51758;SDS011;66684;47.568;18.734;2023-02-22T00:43:28;5.47;;;2.33;;
51758;SDS011;66684;47.568;18.734;2023-02-22T00:45:54;4.10;;;1.65;;
51758;SDS011;66684;47.568;18.734;2023-02-22T00:48:19;4.32;;;2.37;;
51758;SDS011;66684;47.568;18.734;2023-02-22T00:50:45;4.10;;;2.40;;
51758;SDS011;66684;47.568;18.734;2023-02-22T00:53:13;4.82;;;1.90;;
51758;SDS011;66684;47.568;18.734;2023-02-22T00:55:40;6.25;;;2.22;;
51758;SDS011;66684;47.568;18.734;2023-02-22T00:58:06;4.35;;;2.65;;
51758;SDS011;66684;47.568;18.734;2023-02-22T01:00:35;6.12;;;3.20;;
51758;SDS011;66684;47.568;18.734;2023-02-22T01:03:03;4.50;;;2.65;;
51758;SDS011;66684;47.568;18.734;2023-02-22T01:05:30;4.97;;;3.15;;
51758;SDS011;66684;47.568;18.734;2023-02-22T01:07:58;4.37;;;3.08;;
51758;SDS011;66684;47.568;18.734;2023-02-22T01:10:27;4.87;;;2.70;;
51758;SDS011;66684;47.568;18.734;2023-02-22T01:12:55;5.62;;;2.83;;
51758;SDS011;66684;47.568;18.734;2023-02-22T01:15:22;4.37;;;2.65;;
51758;SDS011;66684;47.568;18.734;2023-02-22T01:17:50;3.53;;;2.10;;
51758;SDS011;66684;47.568;18.734;2023-02-22T01:20:19;3.75;;;2.50;;
51758;SDS011;66684;47.568;18.734;2023-02-22T01:22:47;4.85;;;2.37;;
51758;SDS011;66684;47.568;18.734;2023-02-22T01:25:17;3.15;;;2.10;;
51758;SDS011;66684;47.568;18.734;2023-02-22T01:27:44;3.03;;;1.90;;
51758;SDS011;66684;47.568;18.734;2023-02-22T01:30:11;3.80;;;2.17;;
51758;SDS011;66684;47.568;18.734;2023-02-22T01:32:39;4.10;;;2.28;;
51758;SDS011;66684;47.568;18.734;2023-02-22T01:35:08;3.45;;;2.10;;
51758;SDS011;66684;47.568;18.734;2023-02-22T01:37:38;6.03;;;2.28;;
51758;SDS011;66684;47.568;18.734;2023-02-22T01:40:05;5.18;;;2.40;;
51758;SDS011;66684;47.568;18.734;2023-02-22T01:42:33;4.22;;;2.40;;
51758;SDS011;66684;47.568;18.734;2023-02-22T01:50:35;3.70;;;2.20;;
51758;SDS011;66684;47.568;18.734;2023-02-22T01:53:05;3.92;;;2.05;;
51758;SDS011;66684;47.568;18.734;2023-02-22T01:55:33;4.75;;;1.92;;
51758;SDS011;66684;47.568;18.734;2023-02-22T01:58:00;7.75;;;2.37;;
51758;SDS011;66684;47.568;18.734;2023-02-22T02:00:28;4.22;;;2.30;;
51758;SDS011;66684;47.568;18.734;2023-02-22T02:02:57;4.78;;;2.33;;
51758;SDS011;66684;47.568;18.734;2023-02-22T02:05:30;4.35;;;2.55;;
51758;SDS011;66684;47.568;18.734;2023-02-22T02:08:00;5.75;;;2.12;;
51758;SDS011;66684;47.568;18.734;2023-02-22T02:10:37;4.78;;;2.35;;
51758;SDS011;66684;47.568;18.734;2023-02-22T02:13:04;4.28;;;2.55;;
51758;SDS011;66684;47.568;18.734;2023-02-22T02:15:30;6.45;;;2.72;;
51758;SDS011;66684;47.568;18.734;2023-02-22T02:18:03;5.00;;;2.45;;
51758;SDS011;66684;47.568;18.734;2023-02-22T02:20:33;6.65;;;2.60;;
51758;SDS011;66684;47.568;18.734;2023-02-22T02:26:43;4.50;;;2.97;;
51758;SDS011;66684;47.568;18.734;2023-02-22T02:35:38;6.12;;;2.72;;
51758;SDS011;66684;47.568;18.734;2023-02-22T02:38:31;5.93;;;2.78;;
51758;SDS011;66684;47.568;18.734;2023-02-22T02:41:05;4.25;;;2.58;;
51758;SDS011;66684;47.568;18.734;2023-02-22T02:43:40;6.05;;;2.97;;
51758;SDS011;66684;47.568;18.734;2023-02-22T02:52:09;5.72;;;3.10;;
51758;SDS011;66684;47.568;18.734;2023-02-22T02:54:37;7.47;;;3.72;;
51758;SDS011;66684;47.568;18.734;2023-02-22T02:57:05;5.25;;;3.30;;
51758;SDS011;66684;47.568;18.734;2023-02-22T02:59:32;5.75;;;3.67;;
51758;SDS011;66684;47.568;18.734;2023-02-22T03:07:58;7.82;;;3.95;;
51758;SDS011;66684;47.568;18.734;2023-02-22T03:13:35;8.25;;;3.55;;
51758;SDS011;66684;47.568;18.734;2023-02-22T03:16:14;5.28;;;3.70;;
51758;SDS011;66684;47.568;18.734;2023-02-22T03:24:21;7.80;;;4.45;;
51758;SDS011;66684;47.568;18.734;2023-02-22T03:27:05;7.65;;;4.18;;
51758;SDS011;66684;47.568;18.734;2023-02-22T03:29:41;9.65;;;4.57;;
51758;SDS011;66684;47.568;18.734;2023-02-22T03:32:11;8.48;;;4.72;;
51758;SDS011;66684;47.568;18.734;2023-02-22T03:34:42;9.07;;;5.47;;
51758;SDS011;66684;47.568;18.734;2023-02-22T03:37:24;7.82;;;4.90;;
51758;SDS011;66684;47.568;18.734;2023-02-22T03:39:54;9.73;;;4.93;;
51758;SDS011;66684;47.568;18.734;2023-02-22T03:42:23;7.15;;;4.28;;
51758;SDS011;66684;47.568;18.734;2023-02-22T03:44:58;8.00;;;5.40;;
51758;SDS011;66684;47.568;18.734;2023-02-22T03:47:40;8.32;;;5.25;;
51758;SDS011;66684;47.568;18.734;2023-02-22T03:52:46;10.05;;;7.90;;
51758;SDS011;66684;47.568;18.734;2023-02-22T03:55:12;9.43;;;4.97;;
51758;SDS011;66684;47.568;18.734;2023-02-22T03:57:49;10.50;;;4.80;;
51758;SDS011;66684;47.568;18.734;2023-02-22T04:00:20;7.72;;;4.22;;
51758;SDS011;66684;47.568;18.734;2023-02-22T04:02:48;8.05;;;5.03;;
51758;SDS011;66684;47.568;18.734;2023-02-22T04:05:15;9.32;;;4.95;;
51758;SDS011;66684;47.568;18.734;2023-02-22T04:07:41;7.50;;;5.30;;
51758;SDS011;66684;47.568;18.734;2023-02-22T04:10:08;9.88;;;5.25;;
51758;SDS011;66684;47.568;18.734;2023-02-22T04:12:35;11.20;;;6.00;;
51758;SDS011;66684;47.568;18.734;2023-02-22T04:15:03;14.77;;;5.57;;
51758;SDS011;66684;47.568;18.734;2023-02-22T04:17:29;8.73;;;5.50;;
51758;SDS011;66684;47.568;18.734;2023-02-22T04:19:55;12.65;;;5.90;;
51758;SDS011;66684;47.568;18.734;2023-02-22T04:22:21;11.57;;;5.62;;
51758;SDS011;66684;47.568;18.734;2023-02-22T04:24:47;8.88;;;5.97;;
51758;SDS011;66684;47.568;18.734;2023-02-22T04:27:13;7.72;;;5.65;;
51758;SDS011;66684;47.568;18.734;2023-02-22T04:29:40;9.00;;;5.68;;
51758;SDS011;66684;47.568;18.734;2023-02-22T04:32:06;16.65;;;5.28;;
51758;SDS011;66684;47.568;18.734;2023-02-22T04:34:32;9.00;;;4.82;;
51758;SDS011;66684;47.568;18.734;2023-02-22T04:36:58;7.45;;;4.90;;
51758;SDS011;66684;47.568;18.734;2023-02-22T04:39:24;8.23;;;4.75;;
51758;SDS011;66684;47.568;18.734;2023-02-22T04:41:50;9.95;;;5.45;;
51758;SDS011;66684;47.568;18.734;2023-02-22T04:44:16;10.55;;;4.90;;
51758;SDS011;66684;47.568;18.734;2023-02-22T04:46:42;7.03;;;4.80;;
51758;SDS011;66684;47.568;18.734;2023-02-22T04:49:08;9.00;;;4.93;;
51758;SDS011;66684;47.568;18.734;2023-02-22T04:51:34;10.50;;;5.12;;
51758;SDS011;66684;47.568;18.734;2023-02-22T04:54:01;6.75;;;4.95;;
51758;SDS011;66684;47.568;18.734;2023-02-22T04:56:27;9.05;;;5.70;;
51758;SDS011;66684;47.568;18.734;2023-02-22T04:58:53;11.88;;;6.68;;
51758;SDS011;66684;47.568;18.734;2023-02-22T05:01:19;10.05;;;6.75;;
51758;SDS011;66684;47.568;18.734;2023-02-22T05:03:45;10.65;;;6.60;;
51758;SDS011;66684;47.568;18.734;2023-02-22T05:06:11;9.82;;;5.97;;
51758;SDS011;66684;47.568;18.734;2023-02-22T05:08:37;9.48;;;5.43;;
51758;SDS011;66684;47.568;18.734;2023-02-22T05:11:03;8.02;;;5.10;;
51758;SDS011;66684;47.568;18.734;2023-02-22T05:13:30;12.32;;;5.55;;
51758;SDS011;66684;47.568;18.734;2023-02-22T05:15:56;8.48;;;4.30;;
51758;SDS011;66684;47.568;18.734;2023-02-22T05:18:22;7.90;;;5.00;;
51758;SDS011;66684;47.568;18.734;2023-02-22T05:20:48;7.53;;;4.65;;
51758;SDS011;66684;47.568;18.734;2023-02-22T05:23:13;9.10;;;5.05;;
51758;SDS011;66684;47.568;18.734;2023-02-22T05:25:40;10.18;;;5.97;;
51758;SDS011;66684;47.568;18.734;2023-02-22T05:28:12;8.00;;;5.40;;
51758;SDS011;66684;47.568;18.734;2023-02-22T05:30:39;12.68;;;6.28;;
51758;SDS011;66684;47.568;18.734;2023-02-22T05:33:05;10.43;;;6.90;;
51758;SDS011;66684;47.568;18.734;2023-02-22T05:35:32;12.60;;;6.82;;
51758;SDS011;66684;47.568;18.734;2023-02-22T05:37:58;12.18;;;6.30;;
51758;SDS011;66684;47.568;18.734;2023-02-22T05:40:26;10.50;;;6.22;;
51758;SDS011;66684;47.568;18.734;2023-02-22T05:42:53;8.52;;;6.05;;
51758;SDS011;66684;47.568;18.734;2023-02-22T05:45:22;19.92;;;9.45;;
51758;SDS011;66684;47.568;18.734;2023-02-22T05:47:50;9.02;;;6.57;;
51758;SDS011;66684;47.568;18.734;2023-02-22T05:50:16;12.75;;;5.90;;
51758;SDS011;66684;47.568;18.734;2023-02-22T05:52:44;12.80;;;7.43;;
51758;SDS011;66684;47.568;18.734;2023-02-22T05:55:12;13.95;;;9.25;;
51758;SDS011;66684;47.568;18.734;2023-02-22T05:57:39;12.75;;;8.38;;
51758;SDS011;66684;47.568;18.734;2023-02-22T06:00:05;12.20;;;7.57;;
51758;SDS011;66684;47.568;18.734;2023-02-22T06:02:32;15.38;;;9.55;;
51758;SDS011;66684;47.568;18.734;2023-02-22T06:04:58;16.20;;;9.75;;
51758;SDS011;66684;47.568;18.734;2023-02-22T06:07:25;16.02;;;9.27;;
51758;SDS011;66684;47.568;18.734;2023-02-22T06:09:51;15.45;;;9.70;;
51758;SDS011;66684;47.568;18.734;2023-02-22T06:12:18;17.83;;;9.88;;
51758;SDS011;66684;47.568;18.734;2023-02-22T06:14:44;13.62;;;9.52;;
51758;SDS011;66684;47.568;18.734;2023-02-22T06:17:11;15.48;;;9.40;;
51758;SDS011;66684;47.568;18.734;2023-02-22T06:19:38;14.98;;;9.38;;
51758;SDS011;66684;47.568;18.734;2023-02-22T06:22:13;12.98;;;8.18;;
51758;SDS011;66684;47.568;18.734;2023-02-22T06:24:41;12.45;;;8.10;;
51758;SDS011;66684;47.568;18.734;2023-02-22T06:27:07;13.13;;;7.30;;
51758;SDS011;66684;47.568;18.734;2023-02-22T06:29:33;10.30;;;7.30;;
51758;SDS011;66684;47.568;18.734;2023-02-22T06:31:59;10.75;;;7.40;;
51758;SDS011;66684;47.568;18.734;2023-02-22T06:34:25;9.88;;;6.70;;
51758;SDS011;66684;47.568;18.734;2023-02-22T06:36:51;11.35;;;7.75;;
51758;SDS011;66684;47.568;18.734;2023-02-22T06:39:17;12.75;;;8.25;;
51758;SDS011;66684;47.568;18.734;2023-02-22T06:41:43;15.45;;;9.13;;
51758;SDS011;66684;47.568;18.734;2023-02-22T06:44:11;16.77;;;9.52;;
51758;SDS011;66684;47.568;18.734;2023-02-22T06:46:39;15.98;;;9.68;;
51758;SDS011;66684;47.568;18.734;2023-02-22T06:49:14;17.45;;;10.07;;
51758;SDS011;66684;47.568;18.734;2023-02-22T06:51:40;18.85;;;10.25;;
51758;SDS011;66684;47.568;18.734;2023-02-22T06:54:06;17.87;;;9.73;;
51758;SDS011;66684;47.568;18.734;2023-02-22T06:56:32;16.95;;;8.68;;
51758;SDS011;66684;47.568;18.734;2023-02-22T06:58:58;14.93;;;8.77;;
51758;SDS011;66684;47.568;18.734;2023-02-22T07:01:23;13.30;;;8.32;;
51758;SDS011;66684;47.568;18.734;2023-02-22T07:03:49;12.18;;;7.85;;
51758;SDS011;66684;47.568;18.734;2023-02-22T07:06:15;11.85;;;6.28;;
51758;SDS011;66684;47.568;18.734;2023-02-22T07:08:41;12.13;;;6.60;;
51758;SDS011;66684;47.568;18.734;2023-02-22T07:11:07;13.73;;;7.72;;
51758;SDS011;66684;47.568;18.734;2023-02-22T07:13:33;39.78;;;9.23;;
51758;SDS011;66684;47.568;18.734;2023-02-22T07:15:59;38.42;;;12.18;;
51758;SDS011;66684;47.568;18.734;2023-02-22T07:18:25;45.83;;;9.95;;
51758;SDS011;66684;47.568;18.734;2023-02-22T07:20:51;13.95;;;6.95;;
51758;SDS011;66684;47.568;18.734;2023-02-22T07:23:17;14.23;;;6.40;;
51758;SDS011;66684;47.568;18.734;2023-02-22T07:25:43;11.38;;;7.32;;
51758;SDS011;66684;47.568;18.734;2023-02-22T07:28:09;17.48;;;8.07;;
51758;SDS011;66684;47.568;18.734;2023-02-22T07:30:37;14.38;;;8.77;;
51758;SDS011;66684;47.568;18.734;2023-02-22T07:33:04;15.50;;;9.45;;
51758;SDS011;66684;47.568;18.734;2023-02-22T07:35:36;15.15;;;8.52;;
51758;SDS011;66684;47.568;18.734;2023-02-22T07:38:05;20.55;;;12.60;;
51758;SDS011;66684;47.568;18.734;2023-02-22T07:40:35;15.57;;;8.95;;
51758;SDS011;66684;47.568;18.734;2023-02-22T07:45:38;12.98;;;8.07;;
51758;SDS011;66684;47.568;18.734;2023-02-22T07:48:05;14.65;;;7.97;;
51758;SDS011;66684;47.568;18.734;2023-02-22T07:50:31;14.27;;;7.37;;
51758;SDS011;66684;47.568;18.734;2023-02-22T07:52:59;12.60;;;7.78;;
51758;SDS011;66684;47.568;18.734;2023-02-22T07:55:26;14.70;;;8.18;;
51758;SDS011;66684;47.568;18.734;2023-02-22T07:57:55;11.90;;;7.87;;
51758;SDS011;66684;47.568;18.734;2023-02-22T08:02:58;12.30;;;6.95;;
51758;SDS011;66684;47.568;18.734;2023-02-22T08:05:25;16.27;;;8.05;;
51758;SDS011;66684;47.568;18.734;2023-02-22T08:07:53;12.55;;;7.53;;
51758;SDS011;66684;47.568;18.734;2023-02-22T08:10:20;13.23;;;8.13;;
51758;SDS011;66684;47.568;18.734;2023-02-22T08:12:48;11.50;;;7.72;;
51758;SDS011;66684;47.568;18.734;2023-02-22T08:15:16;13.38;;;7.45;;
51758;SDS011;66684;47.568;18.734;2023-02-22T08:17:44;11.07;;;7.30;;
51758;SDS011;66684;47.568;18.734;2023-02-22T08:20:10;13.55;;;6.93;;
51758;SDS011;66684;47.568;18.734;2023-02-22T08:22:36;12.63;;;7.32;;
51758;SDS011;66684;47.568;18.734;2023-02-22T08:25:02;10.07;;;6.72;;
51758;SDS011;66684;47.568;18.734;2023-02-22T08:27:29;12.70;;;6.80;;
51758;SDS011;66684;47.568;18.734;2023-02-22T08:29:55;10.57;;;6.68;;
51758;SDS011;66684;47.568;18.734;2023-02-22T08:32:22;15.43;;;6.82;;
51758;SDS011;66684;47.568;18.734;2023-02-22T08:34:48;13.10;;;6.93;;
51758;SDS011;66684;47.568;18.734;2023-02-22T08:37:15;12.55;;;7.05;;
51758;SDS011;66684;47.568;18.734;2023-02-22T08:39:41;11.63;;;7.45;;
51758;SDS011;66684;47.568;18.734;2023-02-22T08:42:07;13.23;;;8.02;;
51758;SDS011;66684;47.568;18.734;2023-02-22T08:44:34;9.57;;;6.32;;
51758;SDS011;66684;47.568;18.734;2023-02-22T08:47:01;9.38;;;6.25;;
51758;SDS011;66684;47.568;18.734;2023-02-22T08:49:27;8.50;;;5.90;;
51758;SDS011;66684;47.568;18.734;2023-02-22T08:51:52;9.35;;;5.28;;
51758;SDS011;66684;47.568;18.734;2023-02-22T08:54:18;7.32;;;5.43;;
51758;SDS011;66684;47.568;18.734;2023-02-22T08:56:44;9.20;;;5.87;;
51758;SDS011;66684;47.568;18.734;2023-02-22T08:59:10;7.12;;;5.25;;
51758;SDS011;66684;47.568;18.734;2023-02-22T09:01:36;10.68;;;6.32;;
51758;SDS011;66684;47.568;18.734;2023-02-22T09:04:02;8.55;;;5.80;;
51758;SDS011;66684;47.568;18.734;2023-02-22T09:06:28;7.00;;;5.20;;
51758;SDS011;66684;47.568;18.734;2023-02-22T09:08:54;8.40;;;5.12;;
51758;SDS011;66684;47.568;18.734;2023-02-22T09:11:20;9.27;;;5.35;;
51758;SDS011;66684;47.568;18.734;2023-02-22T09:13:46;10.88;;;6.62;;
51758;SDS011;66684;47.568;18.734;2023-02-22T09:16:12;11.85;;;6.03;;
51758;SDS011;66684;47.568;18.734;2023-02-22T09:18:38;10.77;;;6.75;;
51758;SDS011;66684;47.568;18.734;2023-02-22T09:21:04;10.90;;;6.75;;
51758;SDS011;66684;47.568;18.734;2023-02-22T09:23:30;13.77;;;6.97;;
51758;SDS011;66684;47.568;18.734;2023-02-22T09:25:56;11.05;;;6.80;;
51758;SDS011;66684;47.568;18.734;2023-02-22T09:28:25;10.23;;;6.55;;
51758;SDS011;66684;47.568;18.734;2023-02-22T09:30:51;9.32;;;6.55;;
51758;SDS011;66684;47.568;18.734;2023-02-22T09:33:18;10.27;;;5.93;;
51758;SDS011;66684;47.568;18.734;2023-02-22T09:35:46;9.02;;;6.37;;
51758;SDS011;66684;47.568;18.734;2023-02-22T09:38:16;15.45;;;6.50;;
51758;SDS011;66684;47.568;18.734;2023-02-22T09:40:47;12.68;;;6.93;;
51758;SDS011;66684;47.568;18.734;2023-02-22T09:51:16;8.05;;;5.55;;
51758;SDS011;66684;47.568;18.734;2023-02-22T09:53:45;7.87;;;5.78;;
51758;SDS011;66684;47.568;18.734;2023-02-22T09:56:15;8.13;;;5.12;;
51758;SDS011;66684;47.568;18.734;2023-02-22T09:58:48;12.25;;;6.07;;
51758;SDS011;66684;47.568;18.734;2023-02-22T10:07:22;9.50;;;6.07;;
51758;SDS011;66684;47.568;18.734;2023-02-22T10:09:53;9.75;;;5.93;;
51758;SDS011;66684;47.568;18.734;2023-02-22T10:12:27;8.18;;;5.57;;
51758;SDS011;66684;47.568;18.734;2023-02-22T10:23:12;8.55;;;6.00;;
51758;SDS011;66684;47.568;18.734;2023-02-22T10:25:56;9.13;;;5.60;;
51758;SDS011;66684;47.568;18.734;2023-02-22T10:28:33;7.75;;;5.45;;
51758;SDS011;66684;47.568;18.734;2023-02-22T10:31:18;9.40;;;5.95;;
51758;SDS011;66684;47.568;18.734;2023-02-22T10:33:52;7.40;;;4.90;;
51758;SDS011;66684;47.568;18.734;2023-02-22T10:36:23;6.78;;;5.07;;
51758;SDS011;66684;47.568;18.734;2023-02-22T10:38:52;7.55;;;5.30;;
51758;SDS011;66684;47.568;18.734;2023-02-22T10:41:27;10.18;;;4.80;;
51758;SDS011;66684;47.568;18.734;2023-02-22T10:43:57;7.43;;;5.47;;
51758;SDS011;66684;47.568;18.734;2023-02-22T10:46:24;7.72;;;5.50;;
51758;SDS011;66684;47.568;18.734;2023-02-22T10:48:53;8.52;;;5.50;;
51758;SDS011;66684;47.568;18.734;2023-02-22T10:51:24;9.43;;;5.40;;
51758;SDS011;66684;47.568;18.734;2023-02-22T10:53:54;9.98;;;5.82;;
51758;SDS011;66684;47.568;18.734;2023-02-22T10:56:30;8.68;;;6.10;;
51758;SDS011;66684;47.568;18.734;2023-02-22T10:58:57;8.23;;;5.87;;
51758;SDS011;66684;47.568;18.734;2023-02-22T11:03:56;7.32;;;4.93;;
51758;SDS011;66684;47.568;18.734;2023-02-22T11:06:23;9.20;;;3.78;;
51758;SDS011;66684;47.568;18.734;2023-02-22T11:08:49;7.80;;;5.50;;
51758;SDS011;66684;47.568;18.734;2023-02-22T11:11:23;5.30;;;3.85;;
51758;SDS011;66684;47.568;18.734;2023-02-22T11:13:54;7.15;;;4.10;;
51758;SDS011;66684;47.568;18.734;2023-02-22T11:16:29;4.90;;;2.90;;
51758;SDS011;66684;47.568;18.734;2023-02-22T11:19:00;6.03;;;3.42;;
51758;SDS011;66684;47.568;18.734;2023-02-22T11:21:30;5.47;;;3.37;;
51758;SDS011;66684;47.568;18.734;2023-02-22T11:24:07;6.65;;;3.25;;
51758;SDS011;66684;47.568;18.734;2023-02-22T11:26:41;7.57;;;4.30;;
51758;SDS011;66684;47.568;18.734;2023-02-22T11:29:34;5.72;;;4.05;;
51758;SDS011;66684;47.568;18.734;2023-02-22T11:32:12;4.57;;;3.35;;
51758;SDS011;66684;47.568;18.734;2023-02-22T11:34:40;20.23;;;4.28;;
51758;SDS011;66684;47.568;18.734;2023-02-22T11:37:26;9.07;;;3.35;;
51758;SDS011;66684;47.568;18.734;2023-02-22T11:40:16;7.15;;;3.62;;
51758;SDS011;66684;47.568;18.734;2023-02-22T11:42:47;6.43;;;4.10;;
51758;SDS011;66684;47.568;18.734;2023-02-22T11:45:16;4.72;;;3.28;;
51758;SDS011;66684;47.568;18.734;2023-02-22T11:47:56;5.78;;;3.47;;
51758;SDS011;66684;47.568;18.734;2023-02-22T11:50:30;5.72;;;3.10;;
51758;SDS011;66684;47.568;18.734;2023-02-22T11:56:09;5.45;;;3.33;;
51758;SDS011;66684;47.568;18.734;2023-02-22T12:01:17;5.53;;;3.53;;
51758;SDS011;66684;47.568;18.734;2023-02-22T12:09:15;7.18;;;3.37;;
51758;SDS011;66684;47.568;18.734;2023-02-22T12:14:23;8.75;;;3.72;;
51758;SDS011;66684;47.568;18.734;2023-02-22T12:17:17;5.85;;;4.28;;
51758;SDS011;66684;47.568;18.734;2023-02-22T12:19:48;4.35;;;3.40;;
51758;SDS011;66684;47.568;18.734;2023-02-22T12:22:38;5.35;;;3.60;;
51758;SDS011;66684;47.568;18.734;2023-02-22T12:27:44;6.37;;;3.20;;
51758;SDS011;66684;47.568;18.734;2023-02-22T12:30:23;5.87;;;4.00;;
51758;SDS011;66684;47.568;18.734;2023-02-22T12:32:54;5.50;;;3.35;;
51758;SDS011;66684;47.568;18.734;2023-02-22T12:38:13;8.55;;;4.25;;
51758;SDS011;66684;47.568;18.734;2023-02-22T12:41:02;5.47;;;3.85;;
51758;SDS011;66684;47.568;18.734;2023-02-22T12:46:50;6.50;;;3.53;;
51758;SDS011;66684;47.568;18.734;2023-02-22T12:52:12;5.75;;;3.70;;
51758;SDS011;66684;47.568;18.734;2023-02-22T12:57:49;3.65;;;2.33;;
51758;SDS011;66684;47.568;18.734;2023-02-22T13:00:40;4.25;;;2.65;;
51758;SDS011;66684;47.568;18.734;2023-02-22T13:05:44;6.15;;;2.83;;
51758;SDS011;66684;47.568;18.734;2023-02-22T13:11:00;4.55;;;1.50;;
51758;SDS011;66684;47.568;18.734;2023-02-22T13:16:54;2.03;;;1.00;;
51758;SDS011;66684;47.568;18.734;2023-02-22T13:19:25;3.50;;;1.58;;
51758;SDS011;66684;47.568;18.734;2023-02-22T13:22:15;2.28;;;1.10;;
51758;SDS011;66684;47.568;18.734;2023-02-22T13:30:05;4.03;;;2.53;;
51758;SDS011;66684;47.568;18.734;2023-02-22T13:47:15;12.35;;;2.25;;
51758;SDS011;66684;47.568;18.734;2023-02-22T13:52:40;6.85;;;2.28;;
51758;SDS011;66684;47.568;18.734;2023-02-22T13:55:10;3.55;;;2.10;;
51758;SDS011;66684;47.568;18.734;2023-02-22T13:57:43;6.45;;;2.53;;
51758;SDS011;66684;47.568;18.734;2023-02-22T14:14:26;7.72;;;3.20;;
51758;SDS011;66684;47.568;18.734;2023-02-22T14:16:32;7.00;;;3.78;;
51758;SDS011;66684;47.568;18.734;2023-02-22T14:24:27;7.40;;;3.05;;
51758;SDS011;66684;47.568;18.734;2023-02-22T14:27:10;4.10;;;3.08;;
51758;SDS011;66684;47.568;18.734;2023-02-22T14:29:36;5.53;;;3.33;;
51758;SDS011;66684;47.568;18.734;2023-02-22T14:32:06;4.18;;;2.97;;
51758;SDS011;66684;47.568;18.734;2023-02-22T14:39:47;7.62;;;3.40;;
51758;SDS011;66684;47.568;18.734;2023-02-22T14:45:02;6.32;;;3.65;;
51758;SDS011;66684;47.568;18.734;2023-02-22T14:47:47;9.05;;;3.50;;
51758;SDS011;66684;47.568;18.734;2023-02-22T14:50:47;4.65;;;3.15;;
51758;SDS011;66684;47.568;18.734;2023-02-22T14:53:19;12.55;;;5.90;;
51758;SDS011;66684;47.568;18.734;2023-02-22T14:58:30;9.07;;;6.80;;
51758;SDS011;66684;47.568;18.734;2023-02-22T15:01:41;6.70;;;3.75;;
51758;SDS011;66684;47.568;18.734;2023-02-22T15:04:18;5.20;;;3.42;;
51758;SDS011;66684;47.568;18.734;2023-02-22T15:06:55;9.40;;;4.05;;
51758;SDS011;66684;47.568;18.734;2023-02-22T15:09:30;8.38;;;3.53;;
51758;SDS011;66684;47.568;18.734;2023-02-22T15:14:28;3.72;;;2.72;;
51758;SDS011;66684;47.568;18.734;2023-02-22T15:17:00;8.52;;;3.40;;
51758;SDS011;66684;47.568;18.734;2023-02-22T15:19:32;6.20;;;3.90;;
51758;SDS011;66684;47.568;18.734;2023-02-22T15:22:04;7.35;;;3.45;;
51758;SDS011;66684;47.568;18.734;2023-02-22T15:24:33;8.25;;;3.58;;
51758;SDS011;66684;47.568;18.734;2023-02-22T15:27:06;10.38;;;3.17;;
51758;SDS011;66684;47.568;18.734;2023-02-22T15:29:38;14.52;;;4.78;;
51758;SDS011;66684;47.568;18.734;2023-02-22T15:35:03;14.15;;;5.90;;
51758;SDS011;66684;47.568;18.734;2023-02-22T15:37:45;10.57;;;5.55;;
51758;SDS011;66684;47.568;18.734;2023-02-22T15:40:18;7.57;;;4.40;;
51758;SDS011;66684;47.568;18.734;2023-02-22T15:42:46;8.13;;;4.20;;
51758;SDS011;66684;47.568;18.734;2023-02-22T15:45:14;12.35;;;3.90;;
51758;SDS011;66684;47.568;18.734;2023-02-22T15:47:41;32.72;;;8.20;;
51758;SDS011;66684;47.568;18.734;2023-02-22T15:50:18;31.02;;;15.02;;
51758;SDS011;66684;47.568;18.734;2023-02-22T15:55:25;5.90;;;3.80;;
51758;SDS011;66684;47.568;18.734;2023-02-22T15:57:51;6.15;;;3.53;;
51758;SDS011;66684;47.568;18.734;2023-02-22T16:00:31;8.50;;;4.40;;
51758;SDS011;66684;47.568;18.734;2023-02-22T16:03:04;28.92;;;17.30;;
51758;SDS011;66684;47.568;18.734;2023-02-22T16:05:41;16.12;;;9.25;;
51758;SDS011;66684;47.568;18.734;2023-02-22T16:08:12;13.62;;;7.95;;
51758;SDS011;66684;47.568;18.734;2023-02-22T16:10:46;15.43;;;8.20;;
51758;SDS011;66684;47.568;18.734;2023-02-22T16:13:22;16.08;;;9.55;;
51758;SDS011;66684;47.568;18.734;2023-02-22T16:15:59;14.35;;;9.18;;
51758;SDS011;66684;47.568;18.734;2023-02-22T16:18:32;13.40;;;8.95;;
51758;SDS011;66684;47.568;18.734;2023-02-22T16:21:02;15.07;;;8.73;;
51758;SDS011;66684;47.568;18.734;2023-02-22T16:23:46;19.98;;;9.23;;
51758;SDS011;66684;47.568;18.734;2023-02-22T16:29:01;15.15;;;8.18;;
51758;SDS011;66684;47.568;18.734;2023-02-22T16:31:34;12.43;;;7.95;;
51758;SDS011;66684;47.568;18.734;2023-02-22T16:34:03;18.33;;;8.93;;
51758;SDS011;66684;47.568;18.734;2023-02-22T16:36:40;18.33;;;9.02;;
51758;SDS011;66684;47.568;18.734;2023-02-22T16:39:27;11.68;;;8.45;;
51758;SDS011;66684;47.568;18.734;2023-02-22T16:41:56;18.08;;;10.43;;
51758;SDS011;66684;47.568;18.734;2023-02-22T16:44:24;18.02;;;9.15;;
51758;SDS011;66684;47.568;18.734;2023-02-22T16:46:52;12.90;;;7.60;;
51758;SDS011;66684;47.568;18.734;2023-02-22T16:49:20;17.30;;;8.80;;
51758;SDS011;66684;47.568;18.734;2023-02-22T16:51:48;21.67;;;15.43;;
51758;SDS011;66684;47.568;18.734;2023-02-22T16:54:26;26.42;;;17.35;;
51758;SDS011;66684;47.568;18.734;2023-02-22T16:56:54;22.35;;;14.60;;
51758;SDS011;66684;47.568;18.734;2023-02-22T16:59:22;17.50;;;10.55;;
51758;SDS011;66684;47.568;18.734;2023-02-22T17:01:49;15.23;;;9.60;;
51758;SDS011;66684;47.568;18.734;2023-02-22T17:04:16;14.98;;;9.45;;
51758;SDS011;66684;47.568;18.734;2023-02-22T17:06:50;20.15;;;9.23;;
51758;SDS011;66684;47.568;18.734;2023-02-22T17:09:17;28.58;;;9.70;;
51758;SDS011;66684;47.568;18.734;2023-02-22T17:11:47;33.85;;;10.48;;
51758;SDS011;66684;47.568;18.734;2023-02-22T17:14:19;32.17;;;12.90;;
51758;SDS011;66684;47.568;18.734;2023-02-22T17:16:50;28.58;;;15.88;;
51758;SDS011;66684;47.568;18.734;2023-02-22T17:19:19;38.55;;;21.52;;
51758;SDS011;66684;47.568;18.734;2023-02-22T17:21:47;39.88;;;23.33;;
51758;SDS011;66684;47.568;18.734;2023-02-22T17:24:15;45.78;;;26.92;;
51758;SDS011;66684;47.568;18.734;2023-02-22T17:26:44;41.40;;;24.70;;
51758;SDS011;66684;47.568;18.734;2023-02-22T17:29:11;46.90;;;26.05;;
51758;SDS011;66684;47.568;18.734;2023-02-22T17:31:38;44.40;;;27.95;;
51758;SDS011;66684;47.568;18.734;2023-02-22T17:34:04;37.15;;;25.17;;